Time;durP1;ratioP1;P1;durP2;ratioP2;P2;SDS_P1;SDS_P2;PMS_P1;PMS_P2;Temp;Humidity;BMP_temperature;BMP_pressure;BME280_temperature;BME280_humidity;BME280_pressure;Samples;Min_cycle;Max_cycle;Signal;HPM_P1;HPM_P2
2024/01/15 00:02:34;;;;;;;15.10;9.00;;;;;;;1.54;100.00;98455.70;52106;1258;1097872;-79
2024/01/15 00:05:20;;;;;;;13.50;8.20;;;;;;;1.55;100.00;98453.20;52397;1260;1097262;-79
2024/01/15 00:08:05;;;;;;;16.30;9.10;;;;;;;1.55;100.00;98446.71;52342;1259;1097857;-80
2024/01/15 00:10:51;;;;;;;14.30;9.80;;;;;;;1.56;100.00;98446.31;52298;1260;1098316;-79
2024/01/15 00:13:37;;;;;;;15.50;9.80;;;;;;;1.56;100.00;98438.55;52281;1261;1097325;-79
2024/01/15 00:16:22;;;;;;;13.90;8.90;;;;;;;1.59;100.00;98434.54;52356;1256;1096780;-79
2024/01/15 00:19:08;;;;;;;12.90;8.40;;;;;;;1.58;100.00;98425.23;52380;1257;1097880;-80
2024/01/15 00:21:54;;;;;;;15.50;9.90;;;;;;;1.57;100.00;98420.11;52383;1260;1097281;-80
2024/01/15 00:24:40;;;;;;;17.90;9.50;;;;;;;1.55;100.00;98419.27;52297;1261;1097611;-79
2024/01/15 00:27:26;;;;;;;12.30;8.90;;;;;;;1.53;100.00;98419.52;52249;1261;1097464;-79
2024/01/15 00:30:12;;;;;;;16.40;9.50;;;;;;;1.50;100.00;98411.16;52493;1258;1096792;-79
2024/01/15 00:32:58;;;;;;;17.90;10.50;;;;;;;1.47;100.00;98405.65;52376;1255;1096953;-80
2024/01/15 00:35:43;;;;;;;15.30;11.20;;;;;;;1.46;100.00;98405.98;52314;1255;1098622;-79
2024/01/15 00:38:29;;;;;;;17.40;10.10;;;;;;;1.46;100.00;98401.40;52136;1261;1097325;-79
2024/01/15 00:41:15;;;;;;;15.40;10.10;;;;;;;1.45;100.00;98396.20;52092;1261;1097598;-80
2024/01/15 00:44:01;;;;;;;16.60;10.30;;;;;;;1.43;100.00;98390.12;52098;1261;1096867;-79
2024/01/15 00:46:46;;;;;;;16.30;10.40;;;;;;;1.42;100.00;98387.67;52176;1261;1097171;-81
2024/01/15 00:49:32;;;;;;;18.60;10.70;;;;;;;1.41;100.00;98386.02;52429;1260;1097057;-79
2024/01/15 00:52:18;;;;;;;16.20;10.50;;;;;;;1.39;100.00;98388.82;52404;1260;1097869;-80
2024/01/15 00:55:12;;;;;;;15.30;9.70;;;;;;;1.40;100.00;98385.46;52452;1261;1098938;-80
2024/01/15 00:58:14;;;;;;;16.50;10.50;;;;;;;1.39;100.00;98381.83;52664;1258;1097175;-81
2024/01/15 01:01:01;;;;;;;14.60;9.50;;;;;;;1.38;100.00;98376.28;52569;1261;1097017;-80
2024/01/15 01:03:46;;;;;;;16.00;10.50;;;;;;;1.38;100.00;98379.70;52632;1261;1097505;-80
2024/01/15 01:06:32;;;;;;;18.10;10.50;;;;;;;1.38;100.00;98373.21;52536;1256;1097189;-81
2024/01/15 01:09:18;;;;;;;13.50;10.10;;;;;;;1.37;100.00;98369.77;52493;1256;1097428;-80
2024/01/15 01:12:05;;;;;;;16.40;11.00;;;;;;;1.37;100.00;98365.90;52474;1261;1097990;-80
2024/01/15 01:14:50;;;;;;;17.00;11.10;;;;;;;1.37;100.00;98359.21;52510;1261;1097206;-79
2024/01/15 01:17:36;;;;;;;20.10;11.10;;;;;;;1.39;100.00;98363.83;52328;1261;1096699;-80
2024/01/15 01:20:22;;;;;;;18.10;10.80;;;;;;;1.40;100.00;98356.79;52354;1260;1097787;-79
2024/01/15 01:23:08;;;;;;;20.00;11.80;;;;;;;1.42;100.00;98346.54;52358;1258;1097585;-79
2024/01/15 01:25:54;;;;;;;20.10;11.40;;;;;;;1.43;100.00;98345.73;52356;1261;1097444;-80
2024/01/15 01:28:39;;;;;;;16.30;11.80;;;;;;;1.43;100.00;98343.91;52335;1258;1096608;-80
2024/01/15 01:31:25;;;;;;;16.80;11.40;;;;;;;1.42;100.00;98341.54;52365;1261;1096634;-81
2024/01/15 01:34:16;;;;;;;18.10;11.80;;;;;;;1.42;100.00;98339.67;52664;1256;1097102;-81
2024/01/15 01:37:01;;;;;;;17.40;11.90;;;;;;;1.42;100.00;98335.73;52731;1256;1096675;-81
2024/01/15 01:39:47;;;;;;;19.70;11.40;;;;;;;1.43;100.00;98326.94;52797;1256;1097526;-80
2024/01/15 01:42:33;;;;;;;16.80;11.30;;;;;;;1.43;100.00;98316.59;52751;1258;1097626;-80
2024/01/15 01:45:19;;;;;;;19.50;12.30;;;;;;;1.43;100.00;98319.08;52633;1260;1097335;-80
2024/01/15 01:48:05;;;;;;;17.90;12.10;;;;;;;1.44;100.00;98310.40;52625;1260;1097397;-81
2024/01/15 01:50:54;;;;;;;17.30;12.40;;;;;;;1.45;100.00;98300.99;52596;1261;1098210;-80
2024/01/15 01:53:41;;;;;;;16.60;11.30;;;;;;;1.47;100.00;98298.55;52696;1256;1097161;-81
2024/01/15 01:56:27;;;;;;;20.40;12.80;;;;;;;1.48;100.00;98298.31;52560;1256;1096514;-81
2024/01/15 01:59:13;;;;;;;20.60;12.00;;;;;;;1.48;100.00;98289.96;52573;1260;1098126;-81
2024/01/15 02:02:03;;;;;;;22.10;12.90;;;;;;;1.50;100.00;98292.60;52638;1255;1098112;-80
2024/01/15 02:04:49;;;;;;;19.10;12.80;;;;;;;1.51;100.00;98289.09;52623;1260;1097189;-81
2024/01/15 02:07:35;;;;;;;19.10;12.90;;;;;;;1.51;100.00;98284.67;52726;1258;1096905;-80
2024/01/15 02:10:21;;;;;;;22.80;12.70;;;;;;;1.51;100.00;98283.89;52602;1260;1097408;-81
2024/01/15 02:13:06;;;;;;;20.40;12.70;;;;;;;1.50;100.00;98277.63;52619;1260;1097524;-81
2024/01/15 02:15:52;;;;;;;21.60;13.00;;;;;;;1.51;100.00;98272.42;52688;1256;1096762;-81
2024/01/15 02:18:42;;;;;;;20.30;12.80;;;;;;;1.50;100.00;98265.30;52672;1259;1097355;-81
2024/01/15 02:21:28;;;;;;;21.70;12.80;;;;;;;1.49;100.00;98264.43;52705;1260;1097411;-81
2024/01/15 02:24:14;;;;;;;22.80;14.20;;;;;;;1.50;100.00;98259.57;52660;1260;1097458;-81
2024/01/15 02:27:00;;;;;;;22.10;13.70;;;;;;;1.49;100.00;98260.87;52561;1255;1096913;-81
2024/01/15 02:29:46;;;;;;;21.90;14.20;;;;;;;1.49;100.00;98254.56;52600;1257;1096700;-81
2024/01/15 02:32:32;;;;;;;19.80;12.40;;;;;;;1.48;100.00;98248.48;52812;1255;1097517;-81
2024/01/15 02:35:18;;;;;;;20.60;13.50;;;;;;;1.47;100.00;98240.06;52691;1256;1096731;-81
2024/01/15 02:38:07;;;;;;;23.70;14.00;;;;;;;1.46;100.00;98235.10;52615;1261;1097812;-80
2024/01/15 02:40:53;;;;;;;20.90;13.00;;;;;;;1.44;100.00;98235.40;52629;1256;1097127;-81
2024/01/15 02:43:39;;;;;;;19.10;13.20;;;;;;;1.43;100.00;98232.27;52625;1260;1096760;-80
2024/01/15 02:46:25;;;;;;;23.50;13.40;;;;;;;1.42;100.00;98230.23;52671;1260;1097085;-81
2024/01/15 02:49:10;;;;;;;23.30;13.80;;;;;;;1.42;100.00;98222.89;52707;1258;1097199;-81
2024/01/15 02:51:56;;;;;;;20.90;11.80;;;;;;;1.42;100.00;98218.67;52791;1256;1096677;-81
2024/01/15 02:54:42;;;;;;;21.10;12.80;;;;;;;1.39;100.00;98214.79;52688;1261;1096492;-80
2024/01/15 02:57:28;;;;;;;20.50;13.30;;;;;;;1.37;100.00;98212.63;52597;1260;1098271;-81
2024/01/15 03:00:14;;;;;;;20.30;13.70;;;;;;;1.36;100.00;98207.65;52707;1255;1097702;-81
2024/01/15 03:03:00;;;;;;;23.40;14.00;;;;;;;1.34;100.00;98197.54;52597;1260;1097530;-81
2024/01/15 03:05:46;;;;;;;21.10;13.40;;;;;;;1.33;100.00;98192.02;52734;1255;1096964;-81
2024/01/15 03:08:31;;;;;;;20.80;13.50;;;;;;;1.32;100.00;98185.94;52755;1258;1096654;-81
2024/01/15 03:11:17;;;;;;;21.30;13.60;;;;;;;1.31;100.00;98182.63;52747;1261;1097177;-81
2024/01/15 03:14:03;;;;;;;21.80;13.20;;;;;;;1.29;100.00;98170.92;52503;1261;1098263;-81
2024/01/15 03:16:48;;;;;;;21.80;14.00;;;;;;;1.28;100.00;98177.48;52576;1261;1096883;-81
2024/01/15 03:19:35;;;;;;;21.50;13.90;;;;;;;1.26;100.00;98170.13;52692;1261;1099483;-81
2024/01/15 03:22:21;;;;;;;21.80;14.90;;;;;;;1.25;100.00;98160.10;52454;1263;1097263;-80
2024/01/15 03:25:07;;;;;;;26.00;14.70;;;;;;;1.25;100.00;98159.77;52698;1260;1097333;-80
2024/01/15 03:27:52;;;;;;;22.90;14.90;;;;;;;1.24;100.00;98164.39;52659;1261;1098774;-81
2024/01/15 03:30:38;;;;;;;25.10;14.80;;;;;;;1.23;100.00;98164.61;52584;1256;1201850;-81
2024/01/15 03:33:24;;;;;;;25.60;14.70;;;;;;;1.23;100.00;98157.75;52535;1260;1097602;-80
2024/01/15 03:36:10;;;;;;;21.60;13.70;;;;;;;1.22;100.00;98148.84;52604;1261;1097180;-81
2024/01/15 03:38:56;;;;;;;24.40;14.20;;;;;;;1.23;100.00;98149.46;52635;1256;1098905;-81
2024/01/15 03:41:42;;;;;;;21.90;14.00;;;;;;;1.24;100.00;98146.58;52577;1260;1096617;-81
2024/01/15 03:44:28;;;;;;;27.20;15.70;;;;;;;1.24;100.00;98140.05;52540;1261;1098002;-81
2024/01/15 03:47:14;;;;;;;21.40;13.60;;;;;;;1.24;100.00;98136.84;52769;1258;1097315;-82
2024/01/15 03:49:59;;;;;;;23.40;14.40;;;;;;;1.25;100.00;98140.95;52777;1256;1097469;-80
2024/01/15 03:52:45;;;;;;;26.60;14.20;;;;;;;1.26;100.00;98143.30;52672;1256;1096797;-81
2024/01/15 03:55:32;;;;;;;20.70;14.00;;;;;;;1.26;100.00;98132.73;52660;1260;1098345;-81
2024/01/15 03:58:17;;;;;;;20.50;13.20;;;;;;;1.26;100.00;98132.06;52728;1260;1098641;-81
2024/01/15 04:01:03;;;;;;;22.60;13.80;;;;;;;1.27;100.00;98127.86;52579;1260;1098053;-81
2024/01/15 04:03:49;;;;;;;22.70;14.50;;;;;;;1.27;100.00;98124.88;52644;1260;1097857;-81
2024/01/15 04:06:35;;;;;;;19.40;12.70;;;;;;;1.27;100.00;98120.85;52551;1260;1096685;-81
2024/01/15 04:09:21;;;;;;;20.90;12.60;;;;;;;1.28;100.00;98117.08;52696;1261;1097903;-81
2024/01/15 04:12:06;;;;;;;18.30;12.40;;;;;;;1.27;100.00;98112.69;52715;1260;1097654;-81
2024/01/15 04:14:52;;;;;;;21.10;13.10;;;;;;;1.26;100.00;98107.08;52537;1264;1097157;-81
2024/01/15 04:17:38;;;;;;;20.30;12.80;;;;;;;1.25;100.00;98098.15;52497;1270;1098293;-80
2024/01/15 04:20:24;;;;;;;19.70;12.80;;;;;;;1.26;100.00;98097.91;52581;1267;1096985;-81
2024/01/15 04:23:10;;;;;;;22.30;13.50;;;;;;;1.27;100.00;98085.69;52710;1258;1097829;-80
2024/01/15 04:25:55;;;;;;;20.30;11.90;;;;;;;1.28;100.00;98086.09;52740;1260;1096856;-82
2024/01/15 04:28:41;;;;;;;19.10;12.40;;;;;;;1.27;100.00;98077.16;52478;1261;1096690;-79
2024/01/15 04:31:27;;;;;;;17.20;12.00;;;;;;;1.27;100.00;98072.86;52080;1262;1097322;-80
2024/01/15 04:34:13;;;;;;;18.10;12.40;;;;;;;1.25;100.00;98066.92;52070;1263;1096605;-79
2024/01/15 04:36:59;;;;;;;19.50;12.60;;;;;;;1.25;100.00;98068.95;52058;1261;1098002;-80
2024/01/15 04:39:45;;;;;;;19.40;12.00;;;;;;;1.24;100.00;98071.65;52399;1260;1096670;-80
2024/01/15 04:42:31;;;;;;;19.90;12.80;;;;;;;1.23;100.00;98071.40;52276;1260;1097218;-80
2024/01/15 04:45:18;;;;;;;18.30;11.80;;;;;;;1.24;100.00;98069.51;52428;1259;1097086;-80
2024/01/15 04:48:04;;;;;;;20.90;12.50;;;;;;;1.26;100.00;98064.95;52259;1257;1097938;-79
2024/01/15 04:50:50;;;;;;;20.80;12.30;;;;;;;1.26;100.00;98065.46;52274;1260;1097363;-80
2024/01/15 04:53:36;;;;;;;17.40;10.90;;;;;;;1.26;100.00;98057.14;52319;1261;1097743;-79
2024/01/15 04:56:22;;;;;;;18.60;12.60;;;;;;;1.26;100.00;98057.84;52213;1257;1096730;-80
2024/01/15 04:59:08;;;;;;;20.20;12.80;;;;;;;1.25;100.00;98055.48;52341;1260;1098032;-79
2024/01/15 05:01:55;;;;;;;15.80;11.10;;;;;;;1.26;100.00;98053.25;52359;1261;1098546;-79
2024/01/15 05:04:41;;;;;;;18.10;12.00;;;;;;;1.26;100.00;98049.55;52249;1257;1096778;-80
2024/01/15 05:07:27;;;;;;;18.80;13.30;;;;;;;1.26;100.00;98054.35;52344;1261;1097131;-80
2024/01/15 05:10:12;;;;;;;18.30;11.00;;;;;;;1.26;100.00;98054.84;52247;1264;1097361;-80
2024/01/15 05:12:58;;;;;;;15.80;11.50;;;;;;;1.27;100.00;98049.86;52346;1263;1097095;-80
2024/01/15 05:15:44;;;;;;;17.10;10.30;;;;;;;1.28;100.00;98046.70;52352;1271;1097470;-80
2024/01/15 05:18:30;;;;;;;18.00;12.30;;;;;;;1.28;100.00;98046.58;52337;1257;1097293;-80
2024/01/15 05:21:15;;;;;;;18.60;12.40;;;;;;;1.28;100.00;98044.26;52453;1258;1097448;-80
2024/01/15 05:24:01;;;;;;;17.30;11.40;;;;;;;1.29;100.00;98032.11;52443;1257;1097218;-81
2024/01/15 05:26:47;;;;;;;17.90;12.20;;;;;;;1.29;100.00;98033.20;52406;1257;1099587;-80
2024/01/15 05:29:33;;;;;;;19.40;12.30;;;;;;;1.30;100.00;98032.10;52607;1260;1096999;-80
2024/01/15 05:32:18;;;;;;;15.80;10.20;;;;;;;1.29;100.00;98030.96;52398;1257;1097458;-80
2024/01/15 05:35:04;;;;;;;19.70;11.50;;;;;;;1.29;100.00;98034.86;52280;1261;1097234;-79
2024/01/15 05:37:50;;;;;;;18.10;11.60;;;;;;;1.27;100.00;98031.88;52262;1261;1096813;-80
2024/01/15 05:40:36;;;;;;;17.90;10.70;;;;;;;1.27;100.00;98032.41;52249;1261;1097354;-79
2024/01/15 05:43:22;;;;;;;16.40;11.10;;;;;;;1.27;100.00;98022.73;52140;1271;1097375;-78
2024/01/15 05:46:07;;;;;;;20.70;11.30;;;;;;;1.28;100.00;98023.70;52318;1260;1097666;-79
2024/01/15 05:48:53;;;;;;;17.60;11.70;;;;;;;1.27;100.00;98019.06;52358;1258;1098331;-80
2024/01/15 05:51:39;;;;;;;15.60;9.90;;;;;;;1.26;100.00;98021.65;52003;1264;1098011;-79
2024/01/15 05:54:25;;;;;;;18.30;11.70;;;;;;;1.24;100.00;98022.45;52097;1272;1096958;-79
2024/01/15 05:57:11;;;;;;;19.10;11.50;;;;;;;1.24;100.00;98017.23;52037;1263;1097726;-78
2024/01/15 05:59:56;;;;;;;17.90;10.90;;;;;;;1.23;100.00;98016.77;52177;1260;1097276;-80
2024/01/15 06:02:42;;;;;;;17.00;10.90;;;;;;;1.20;100.00;98013.36;52430;1271;1097456;-81
2024/01/15 06:05:28;;;;;;;17.60;11.10;;;;;;;1.18;100.00;98006.95;52651;1257;1097531;-81
2024/01/15 06:08:14;;;;;;;15.00;10.60;;;;;;;1.17;100.00;98006.58;52574;1261;1096951;-81
2024/01/15 06:11:00;;;;;;;16.70;11.10;;;;;;;1.18;100.00;98001.19;52691;1257;1096687;-80
2024/01/15 06:13:46;;;;;;;18.20;11.60;;;;;;;1.18;100.00;97992.46;52566;1256;1097911;-81
2024/01/15 06:16:32;;;;;;;18.30;12.30;;;;;;;1.19;100.00;97988.33;52543;1261;1096966;-80
2024/01/15 06:19:18;;;;;;;18.20;11.70;;;;;;;1.18;100.00;97980.86;52462;1257;1097101;-80
2024/01/15 06:22:04;;;;;;;20.40;11.70;;;;;;;1.17;100.00;97982.34;52405;1260;1096855;-80
2024/01/15 06:24:50;;;;;;;18.60;11.40;;;;;;;1.16;100.00;97989.58;52352;1258;1097976;-80
2024/01/15 06:27:35;;;;;;;19.00;12.30;;;;;;;1.15;100.00;97985.39;52277;1260;1097183;-78
2024/01/15 06:30:21;;;;;;;19.50;12.60;;;;;;;1.14;100.00;97993.21;52155;1260;1097401;-79
2024/01/15 06:33:07;;;;;;;16.70;11.50;;;;;;;1.13;100.00;97984.66;52189;1265;1097147;-80
2024/01/15 06:35:53;;;;;;;21.80;13.10;;;;;;;1.13;100.00;97981.35;52475;1261;1097792;-80
2024/01/15 06:38:38;;;;;;;21.80;13.00;;;;;;;1.17;100.00;97978.54;52637;1257;1096825;-80
2024/01/15 06:41:25;;;;;;;19.40;12.40;;;;;;;1.16;100.00;97974.71;52606;1257;1097091;-80
2024/01/15 06:44:12;;;;;;;19.00;12.60;;;;;;;1.15;100.00;97974.91;52541;1260;1096784;-80
2024/01/15 06:47:02;;;;;;;19.10;12.80;;;;;;;1.12;100.00;97974.92;52661;1260;1096854;-79
2024/01/15 06:49:48;;;;;;;21.30;12.90;;;;;;;1.09;100.00;97976.55;51913;1260;1097079;-79
2024/01/15 06:52:34;;;;;;;19.60;12.00;;;;;;;1.08;100.00;97968.55;52289;1260;1097526;-79
2024/01/15 06:55:20;;;;;;;17.40;11.10;;;;;;;1.07;100.00;97969.38;52257;1264;1096762;-79
2024/01/15 06:58:05;;;;;;;19.50;11.90;;;;;;;1.06;100.00;97973.18;52180;1260;1097463;-78
2024/01/15 07:00:51;;;;;;;22.20;12.40;;;;;;;1.05;100.00;97977.79;52313;1261;1098253;-79
2024/01/15 07:03:38;;;;;;;19.90;12.80;;;;;;;1.04;100.00;97983.46;52393;1260;1096960;-80
2024/01/15 07:06:23;;;;;;;19.40;12.30;;;;;;;1.04;100.00;97987.81;52341;1261;1097548;-80
2024/01/15 07:09:10;;;;;;;17.30;10.50;;;;;;;1.03;100.00;97981.90;52361;1257;1097341;-80
2024/01/15 07:11:57;;;;;;;19.60;11.40;;;;;;;1.00;100.00;97980.50;52682;1258;1097556;-80
2024/01/15 07:14:43;;;;;;;15.30;10.90;;;;;;;0.96;100.00;97986.77;52365;1260;1098284;-80
2024/01/15 07:17:30;;;;;;;17.70;11.20;;;;;;;0.94;100.00;97986.86;52215;1257;1097792;-80
2024/01/15 07:20:19;;;;;;;16.60;11.50;;;;;;;0.94;100.00;97984.27;52305;1260;1097805;-79
2024/01/15 07:23:05;;;;;;;14.40;9.80;;;;;;;0.94;100.00;97993.02;52387;1257;1097179;-81
2024/01/15 07:25:50;;;;;;;16.90;11.10;;;;;;;0.95;100.00;97995.92;52331;1257;1097413;-80
2024/01/15 07:28:36;;;;;;;18.30;10.40;;;;;;;0.97;100.00;98001.11;52237;1257;1096660;-80
2024/01/15 07:31:22;;;;;;;15.20;10.10;;;;;;;0.99;100.00;97997.34;52250;1260;1097792;-80
2024/01/15 07:34:07;;;;;;;16.70;10.60;;;;;;;1.01;100.00;98005.86;52237;1269;1097226;-79
2024/01/15 07:36:53;;;;;;;15.40;10.00;;;;;;;1.03;100.00;98012.11;52237;1260;1098269;-78
2024/01/15 07:39:39;;;;;;;17.30;11.50;;;;;;;1.04;100.00;98012.45;52265;1260;1098180;-79
2024/01/15 07:42:25;;;;;;;16.90;11.20;;;;;;;1.05;100.00;98019.56;52291;1257;1097192;-80
2024/01/15 07:45:11;;;;;;;16.30;11.50;;;;;;;1.05;100.00;98012.88;52355;1257;1097440;-79
2024/01/15 07:47:56;;;;;;;14.20;9.30;;;;;;;1.04;100.00;98012.42;52306;1260;1097104;-80
2024/01/15 07:50:42;;;;;;;16.40;11.30;;;;;;;1.04;100.00;98010.67;52174;1261;1097743;-78
2024/01/15 07:53:28;;;;;;;16.20;10.60;;;;;;;1.03;100.00;98017.29;51991;1261;1097948;-79
2024/01/15 07:56:13;;;;;;;25.00;13.30;;;;;;;1.06;100.00;98016.21;52089;1260;1096648;-79
2024/01/15 07:58:59;;;;;;;16.90;10.50;;;;;;;1.09;100.00;98021.10;52465;1257;1097513;-80
2024/01/15 08:01:45;;;;;;;20.70;13.60;;;;;;;1.13;100.00;98026.25;52272;1260;1098122;-79
2024/01/15 08:04:31;;;;;;;18.50;12.80;;;;;;;1.18;100.00;98019.35;52013;1258;1107638;-78
2024/01/15 08:07:17;;;;;;;18.20;12.50;;;;;;;1.21;100.00;98014.95;52146;1260;1097316;-78
2024/01/15 08:10:03;;;;;;;17.40;11.70;;;;;;;1.24;100.00;98022.29;52198;1257;1097198;-79
2024/01/15 08:12:49;;;;;;;16.40;10.70;;;;;;;1.24;100.00;98024.23;52342;1261;1097859;-79
2024/01/15 08:15:35;;;;;;;14.00;9.50;;;;;;;1.24;100.00;98022.64;52321;1257;1097328;-79
2024/01/15 08:18:21;;;;;;;16.80;10.10;;;;;;;1.25;100.00;98017.63;52356;1271;1096950;-80
2024/01/15 08:21:07;;;;;;;16.50;10.60;;;;;;;1.25;100.00;98018.96;52298;1257;1096916;-79
2024/01/15 08:23:54;;;;;;;20.20;11.20;;;;;;;1.27;100.00;98020.69;52183;1260;1097054;-80
2024/01/15 08:26:40;;;;;;;18.60;11.50;;;;;;;1.27;100.00;98017.07;52280;1260;1097542;-80
2024/01/15 08:29:25;;;;;;;15.10;10.90;;;;;;;1.27;100.00;98025.92;52377;1264;1109320;-80
2024/01/15 08:32:14;;;;;;;19.00;11.00;;;;;;;1.23;100.00;98026.98;52135;1260;1096906;-79
2024/01/15 08:34:59;;;;;;;16.80;11.30;;;;;;;1.18;100.00;98025.48;52486;1260;1097166;-79
2024/01/15 08:37:45;;;;;;;20.80;11.70;;;;;;;1.18;100.00;98027.98;52237;1261;1096677;-80
2024/01/15 08:40:31;;;;;;;15.40;10.40;;;;;;;1.24;100.00;98030.75;52264;1258;1098097;-79
2024/01/15 08:43:16;;;;;;;15.40;11.20;;;;;;;1.31;100.00;98024.85;52350;1260;1098743;-78
2024/01/15 08:46:03;;;;;;;15.50;10.50;;;;;;;1.36;100.00;98023.02;52307;1263;1097549;-80
2024/01/15 08:48:49;;;;;;;17.10;11.40;;;;;;;1.38;100.00;98018.63;52206;1260;1096555;-78
2024/01/15 08:51:34;;;;;;;18.40;12.40;;;;;;;1.42;100.00;98021.46;52250;1260;1096667;-79
2024/01/15 08:54:20;;;;;;;16.50;10.30;;;;;;;1.48;100.00;98029.05;52170;1257;1097946;-79
2024/01/15 08:57:06;;;;;;;17.40;11.10;;;;;;;1.50;100.00;98033.41;52039;1261;1097112;-80
2024/01/15 08:59:52;;;;;;;17.10;10.80;;;;;;;1.51;100.00;98027.58;52249;1261;1096663;-80
2024/01/15 09:02:37;;;;;;;15.10;9.20;;;;;;;1.53;100.00;98029.33;52354;1257;1097378;-80
2024/01/15 09:05:23;;;;;;;16.50;9.20;;;;;;;1.52;100.00;98025.67;52345;1257;1096988;-80
2024/01/15 09:08:09;;;;;;;13.10;8.80;;;;;;;1.53;100.00;98028.27;52327;1260;1097275;-80
2024/01/15 09:10:55;;;;;;;14.40;9.00;;;;;;;1.54;100.00;98021.09;52278;1258;1097368;-79
2024/01/15 09:13:41;;;;;;;13.90;8.80;;;;;;;1.57;100.00;98019.50;52267;1261;1096947;-80
2024/01/15 09:16:26;;;;;;;36.30;15.80;;;;;;;1.60;100.00;98024.71;52275;1256;1097729;-80
2024/01/15 09:19:12;;;;;;;53.60;21.40;;;;;;;1.63;100.00;98018.38;52222;1260;1097917;-79
2024/01/15 09:21:58;;;;;;;29.20;15.00;;;;;;;1.66;100.00;98024.20;52340;1260;1097543;-81
2024/01/15 09:24:45;;;;;;;15.00;10.10;;;;;;;1.67;100.00;98016.27;52599;1260;1096755;-80
2024/01/15 09:27:32;;;;;;;17.10;9.60;;;;;;;1.67;100.00;98017.25;52598;1264;1097542;-79
2024/01/15 09:30:18;;;;;;;14.20;9.10;;;;;;;1.68;100.00;98014.14;52271;1259;1097009;-80
2024/01/15 09:33:04;;;;;;;15.40;8.60;;;;;;;1.69;100.00;98021.48;52536;1257;1097809;-80
2024/01/15 09:35:49;;;;;;;13.80;8.10;;;;;;;1.72;100.00;98022.56;52481;1260;1098081;-80
2024/01/15 09:38:36;;;;;;;14.20;7.50;;;;;;;1.74;100.00;98020.45;52309;1261;1097508;-80
2024/01/15 09:41:22;;;;;;;15.00;8.00;;;;;;;1.76;100.00;98023.52;52273;1257;1096923;-80
2024/01/15 09:44:08;;;;;;;11.20;7.50;;;;;;;1.77;100.00;98025.10;52556;1260;1097498;-79
2024/01/15 09:46:56;;;;;;;11.90;7.10;;;;;;;1.75;100.00;98019.58;52198;1260;1098139;-79
2024/01/15 09:49:42;;;;;;;11.20;6.70;;;;;;;1.73;100.00;98021.19;52412;1260;1096926;-81
2024/01/15 09:52:28;;;;;;;12.90;7.80;;;;;;;1.75;100.00;98019.33;52652;1260;1097964;-80
2024/01/15 09:55:18;;;;;;;13.50;7.20;;;;;;;1.77;100.00;98025.11;52659;1260;1097447;-80
2024/01/15 09:58:04;;;;;;;13.50;7.60;;;;;;;1.75;100.00;98024.90;52525;1260;1096548;-81
2024/01/15 10:00:50;;;;;;;12.30;7.70;;;;;;;1.74;100.00;98029.48;52521;1257;1096676;-80
2024/01/15 10:03:36;;;;;;;17.20;7.80;;;;;;;1.71;100.00;98026.08;52664;1260;1096778;-80
2024/01/15 10:06:22;;;;;;;12.50;7.80;;;;;;;1.70;100.00;98022.29;52705;1260;1097341;-81
2024/01/15 10:09:08;;;;;;;25.30;11.50;;;;;;;1.66;100.00;98018.30;52591;1260;1096810;-81
2024/01/15 10:11:54;;;;;;;42.00;16.40;;;;;;;1.66;100.00;98015.06;52555;1260;1096870;-81
2024/01/15 10:14:42;;;;;;;31.10;14.10;;;;;;;1.66;100.00;98002.73;52658;1260;1097718;-81
2024/01/15 10:17:28;;;;;;;17.80;11.50;;;;;;;1.67;100.00;97999.06;52362;1257;1097467;-81
2024/01/15 10:20:13;;;;;;;17.40;9.20;;;;;;;1.71;100.00;98002.98;52516;1257;1097943;-81
2024/01/15 10:22:59;;;;;;;14.80;9.20;;;;;;;1.76;100.00;97997.70;52752;1259;1096667;-80
2024/01/15 10:25:45;;;;;;;12.20;8.40;;;;;;;1.82;100.00;98005.45;52738;1260;1097129;-81
2024/01/15 10:28:31;;;;;;;15.80;7.90;;;;;;;1.88;100.00;98005.40;52664;1257;1097265;-81
2024/01/15 10:31:19;;;;;;;15.70;9.30;;;;;;;1.92;100.00;98011.11;52610;1258;1096525;-80
2024/01/15 10:34:15;;;;;;;16.10;8.00;;;;;;;1.98;100.00;98010.94;52582;1260;1097497;-79
2024/01/15 10:37:02;;;;;;;15.20;7.50;;;;;;;2.01;100.00;98015.27;52127;1260;1097424;-80
2024/01/15 10:39:48;;;;;;;12.40;7.60;;;;;;;2.01;100.00;98005.35;52350;1260;1096950;-80
2024/01/15 10:42:34;;;;;;;11.70;7.70;;;;;;;2.04;100.00;98005.86;52362;1258;1096883;-79
2024/01/15 10:45:20;;;;;;;13.80;8.40;;;;;;;2.09;100.00;98006.88;52252;1260;1097983;-79
2024/01/15 10:48:07;;;;;;;12.30;7.30;;;;;;;2.10;100.00;98005.68;52065;1263;1097055;-80
2024/01/15 10:50:53;;;;;;;15.00;8.00;;;;;;;2.07;100.00;98004.48;51975;1255;1097772;-79
2024/01/15 10:53:42;;;;;;;13.60;8.00;;;;;;;2.01;100.00;98001.23;52066;1258;1097155;-79
2024/01/15 10:56:31;;;;;;;13.30;8.00;;;;;;;1.96;100.00;97998.79;52027;1255;1097266;-80
2024/01/15 10:59:20;;;;;;;13.90;8.10;;;;;;;1.92;100.00;97993.33;52442;1260;1097362;-79
2024/01/15 11:02:06;;;;;;;12.70;7.90;;;;;;;1.89;100.00;97993.39;52280;1260;1098391;-80
2024/01/15 11:04:52;;;;;;;13.90;7.60;;;;;;;1.87;100.00;97999.39;52535;1260;1097760;-79
2024/01/15 11:07:39;;;;;;;14.50;7.90;;;;;;;1.86;100.00;97993.41;52218;1260;1098124;-80
2024/01/15 11:10:46;;;;;;;15.80;7.10;;;;;;;1.87;100.00;97988.95;52165;1263;1098209;-78
2024/01/15 11:13:31;;;;;;;11.30;6.70;;;;;;;1.86;100.00;97981.98;52387;1260;1096489;-80
2024/01/15 11:16:17;;;;;;;12.90;7.90;;;;;;;1.88;100.00;97995.09;52344;1260;1097440;-81
2024/01/15 11:19:06;;;;;;;13.80;8.00;;;;;;;1.88;100.00;97994.76;52483;1256;1096669;-80
2024/01/15 11:21:52;;;;;;;14.40;7.70;;;;;;;1.90;100.00;97992.20;52170;1263;1097257;-81
2024/01/15 11:24:40;;;;;;;10.40;6.40;;;;;;;1.89;100.00;97991.15;52129;1260;1097007;-80
2024/01/15 11:27:47;;;;;;;12.40;6.90;;;;;;;1.87;100.00;97990.68;52150;1263;1098185;-81
2024/01/15 11:30:36;;;;;;;14.10;7.00;;;;;;;1.85;100.00;97993.57;52271;1260;1097170;-80
2024/01/15 11:33:34;;;;;;;14.10;8.30;;;;;;;1.86;100.00;97987.67;52224;1257;1097397;-80
2024/01/15 11:36:19;;;;;;;12.90;7.70;;;;;;;1.87;100.00;97989.11;52410;1260;1097493;-81
2024/01/15 11:39:32;;;;;;;14.00;7.50;;;;;;;1.88;100.00;97979.77;52504;1260;1097621;-81
2024/01/15 11:42:20;;;;;;;12.70;6.90;;;;;;;1.88;100.00;97983.70;52586;1260;1097058;-79
2024/01/15 11:45:05;;;;;;;16.10;7.00;;;;;;;1.86;100.00;97969.33;52662;1257;1096592;-80
2024/01/15 11:48:13;;;;;;;14.30;7.40;;;;;;;1.85;100.00;97969.70;52630;1258;1097483;-80
2024/01/15 11:51:00;;;;;;;17.70;7.70;;;;;;;1.83;100.00;97969.15;52478;1257;1097343;-79
2024/01/15 11:53:51;;;;;;;16.00;7.80;;;;;;;1.82;100.00;97961.27;52608;1260;1096555;-80
2024/01/15 11:56:37;;;;;;;14.10;7.40;;;;;;;1.80;100.00;97967.81;52429;1260;1098009;-80
2024/01/15 11:59:23;;;;;;;14.50;7.40;;;;;;;1.77;100.00;97966.80;52533;1256;1096663;-80
2024/01/15 12:02:12;;;;;;;16.80;8.10;;;;;;;1.75;100.00;97959.00;52504;1260;1096706;-80
2024/01/15 12:04:58;;;;;;;21.70;10.70;;;;;;;1.72;100.00;97959.23;52553;1260;1097627;-79
2024/01/15 12:07:47;;;;;;;20.80;9.10;;;;;;;1.68;100.00;97966.75;52700;1255;1097093;-81
2024/01/15 12:10:33;;;;;;;17.40;8.90;;;;;;;1.64;100.00;97971.47;52661;1257;1097321;-80
2024/01/15 12:13:20;;;;;;;16.70;8.40;;;;;;;1.60;100.00;97981.64;52647;1260;1097643;-80
2024/01/15 12:16:06;;;;;;;15.30;7.90;;;;;;;1.52;100.00;97977.23;52451;1260;1096818;-80
2024/01/15 12:18:51;;;;;;;15.30;8.60;;;;;;;1.44;100.00;97972.90;52504;1258;1097374;-79
2024/01/15 12:21:39;;;;;;;14.00;7.90;;;;;;;1.38;100.00;97969.50;52500;1260;1097817;-80
2024/01/15 12:24:25;;;;;;;14.10;8.60;;;;;;;1.33;100.00;97969.87;52708;1261;1096724;-80
2024/01/15 12:27:11;;;;;;;14.10;8.40;;;;;;;1.31;100.00;97968.23;52506;1258;1096794;-80
2024/01/15 12:29:58;;;;;;;16.90;8.00;;;;;;;1.31;100.00;97969.20;52305;1260;1097266;-80
2024/01/15 12:32:46;;;;;;;17.10;9.50;;;;;;;1.33;100.00;97976.67;52151;1260;1097832;-79